createdAt,value
2023-02-19T00:01:43.829Z,9.90
2023-02-19T00:04:15.578Z,10.60
2023-02-19T00:06:45.053Z,10.10
2023-02-19T00:09:14.109Z,10.10
2023-02-19T00:11:42.215Z,10.00
2023-02-19T00:14:11.351Z,10.30
2023-02-19T00:16:40.142Z,10.10
2023-02-19T00:19:12.537Z,10.20
2023-02-19T00:24:10.496Z,9.90
2023-02-19T00:26:39.872Z,10.50
2023-02-19T00:29:07.210Z,9.90
2023-02-19T00:31:35.665Z,9.90
2023-02-19T00:34:05.535Z,9.90
2023-02-19T00:36:37.727Z,10.60
2023-02-19T00:39:06.900Z,10.10
2023-02-19T00:41:34.691Z,9.90
2023-02-19T00:44:06.233Z,10.10
2023-02-19T00:46:36.684Z,10.10
2023-02-19T00:49:05.667Z,10.10
2023-02-19T00:51:36.429Z,10.10
2023-02-19T00:54:05.055Z,9.90
2023-02-19T00:56:32.295Z,9.90
2023-02-19T00:58:59.746Z,9.80
2023-02-19T01:01:27.318Z,10.60
2023-02-19T01:03:54.741Z,9.80
2023-02-19T01:06:22.197Z,10.10
2023-02-19T01:08:50.324Z,9.70
2023-02-19T01:11:18.634Z,10.20
2023-02-19T01:13:46.006Z,9.80
2023-02-19T01:16:19.417Z,10.80
2023-02-19T01:18:48.051Z,9.70
2023-02-19T01:21:21.008Z,9.80
2023-02-19T01:23:49.940Z,9.80
2023-02-19T01:26:20.530Z,9.80
2023-02-19T01:28:48.464Z,9.60
2023-02-19T01:31:21.355Z,10.00
2023-02-19T01:33:51.072Z,9.70
2023-02-19T01:36:18.962Z,9.90
2023-02-19T01:38:47.057Z,10.80
2023-02-19T01:41:19.544Z,9.80
2023-02-19T01:44:03.353Z,9.90
2023-02-19T01:46:35.521Z,10.10
2023-02-19T01:49:06.596Z,10.10
2023-02-19T01:51:36.353Z,11.20
2023-02-19T01:54:07.028Z,9.90
2023-02-19T01:56:38.370Z,9.90
2023-02-19T01:59:07.401Z,9.70
2023-02-19T02:01:38.588Z,10.70
2023-02-19T02:04:07.766Z,10.90
2023-02-19T02:06:41.140Z,11.00
2023-02-19T02:11:54.618Z,9.70
2023-02-19T02:14:26.801Z,9.70
2023-02-19T02:17:12.713Z,10.00
2023-02-19T02:20:28.258Z,9.60
2023-02-19T02:23:15.446Z,9.50
2023-02-19T02:25:49.115Z,9.40
2023-02-19T02:28:38.380Z,9.50
2023-02-19T02:31:17.114Z,9.30
2023-02-19T02:33:55.306Z,9.30
2023-02-19T02:36:28.996Z,10.40
2023-02-19T02:41:26.451Z,9.20
2023-02-19T02:46:32.561Z,9.20
2023-02-19T02:49:05.318Z,10.10
2023-02-19T02:51:35.065Z,9.70
2023-02-19T02:54:33.229Z,10.00
2023-02-19T02:57:04.435Z,9.10
2023-02-19T02:59:39.570Z,9.10
2023-02-19T03:02:14.707Z,9.40
2023-02-19T03:05:25.186Z,11.20
2023-02-19T03:08:09.861Z,9.20
2023-02-19T03:10:45.955Z,8.90
2023-02-19T03:13:56.269Z,9.10
2023-02-19T03:16:49.390Z,9.10
2023-02-19T03:19:20.367Z,9.20
2023-02-19T03:22:19.948Z,9.10
2023-02-19T03:25:14.905Z,9.10
2023-02-19T03:27:44.702Z,9.00
2023-02-19T03:30:21.796Z,9.00
2023-02-19T03:32:57.334Z,9.00
2023-02-19T03:35:29.356Z,9.00
2023-02-19T03:38:02.775Z,9.00
2023-02-19T03:40:39.972Z,9.10
2023-02-19T03:43:24.718Z,9.10
2023-02-19T03:46:05.709Z,9.10
2023-02-19T03:48:41.368Z,9.10
2023-02-19T03:51:26.691Z,9.10
2023-02-19T03:54:21.259Z,9.10
2023-02-19T03:57:17.610Z,9.00
2023-02-19T03:59:59.335Z,9.00
2023-02-19T04:02:36.902Z,8.90
2023-02-19T04:05:10.067Z,10.00
2023-02-19T04:07:41.782Z,8.90
2023-02-19T04:10:11.055Z,9.30
2023-02-19T04:12:48.904Z,9.00
2023-02-19T04:15:25.481Z,9.10
2023-02-19T04:18:00.264Z,9.50
2023-02-19T04:20:32.215Z,8.70
2023-02-19T04:22:59.747Z,8.80
2023-02-19T04:25:28.928Z,9.00
2023-02-19T04:27:57.107Z,8.90
2023-02-19T04:30:24.880Z,9.00
2023-02-19T04:32:52.213Z,8.80
2023-02-19T04:35:19.503Z,8.90
2023-02-19T04:37:46.955Z,9.00
2023-02-19T04:40:14.285Z,9.10
2023-02-19T04:42:41.731Z,9.30
2023-02-19T04:45:10.314Z,9.00
2023-02-19T04:47:37.560Z,8.90
2023-02-19T04:50:05.261Z,9.00
2023-02-19T04:55:00.616Z,9.00
2023-02-19T04:57:28.111Z,9.00
2023-02-19T05:02:23.227Z,9.10
2023-02-19T05:04:50.722Z,9.10
2023-02-19T05:07:18.289Z,9.10
2023-02-19T05:09:45.662Z,9.10
2023-02-19T05:12:13.005Z,9.20
2023-02-19T05:14:40.308Z,9.30
2023-02-19T05:17:07.599Z,9.50
2023-02-19T05:19:35.022Z,9.50
2023-02-19T05:22:02.295Z,9.20
2023-02-19T05:24:31.573Z,9.80
2023-02-19T05:26:59.022Z,9.30
2023-02-19T05:29:26.460Z,9.70
2023-02-19T05:31:54.019Z,9.40
2023-02-19T05:34:21.410Z,9.20
2023-02-19T05:36:48.798Z,9.20
2023-02-19T05:41:43.884Z,9.10
2023-02-19T05:44:11.606Z,9.70
2023-02-19T05:46:39.056Z,9.00
2023-02-19T05:51:34.643Z,9.00
2023-02-19T05:54:01.996Z,9.00
2023-02-19T05:56:38.172Z,8.90
2023-02-19T05:59:19.699Z,8.90
2023-02-19T06:01:48.217Z,8.80
2023-02-19T06:04:17.274Z,9.30
2023-02-19T06:06:45.225Z,8.90
2023-02-19T06:09:13.554Z,9.10
2023-02-19T06:11:40.893Z,8.90
2023-02-19T06:14:08.268Z,9.20
2023-02-19T06:16:35.566Z,8.90
2023-02-19T06:19:04.471Z,9.00
2023-02-19T06:21:32.215Z,9.60
2023-02-19T06:24:03.887Z,9.00
2023-02-19T06:26:31.280Z,8.30
2023-02-19T06:28:58.743Z,8.80
2023-02-19T06:31:26.126Z,9.20
2023-02-19T06:33:56.025Z,9.70
2023-02-19T06:36:24.131Z,8.80
2023-02-19T06:38:52.469Z,8.60
2023-02-19T06:41:20.041Z,8.20
2023-02-19T06:43:47.415Z,9.20
2023-02-19T06:48:44.360Z,8.10
2023-02-19T06:51:18.821Z,8.40
2023-02-19T06:53:46.430Z,8.50
2023-02-19T06:56:31.633Z,8.40
2023-02-19T06:59:01.221Z,8.70
2023-02-19T07:01:30.641Z,8.40
2023-02-19T07:03:58.675Z,8.20
2023-02-19T07:06:26.906Z,8.30
2023-02-19T07:08:56.179Z,8.20
2023-02-19T07:11:24.506Z,8.70
2023-02-19T07:14:03.207Z,8.30
2023-02-19T07:16:30.810Z,8.60
2023-02-19T07:18:59.724Z,8.40
2023-02-19T07:21:28.225Z,8.30
2023-02-19T07:23:56.228Z,8.50
2023-02-19T07:26:24.219Z,8.40
2023-02-19T07:31:21.313Z,8.30
2023-02-19T07:33:48.842Z,8.30
2023-02-19T07:36:18.182Z,8.60
2023-02-19T07:38:45.587Z,8.40
2023-02-19T07:43:41.163Z,8.40
2023-02-19T07:46:12.021Z,8.50
2023-02-19T07:48:41.349Z,8.40
2023-02-19T07:51:13.106Z,8.80
2023-02-19T07:53:40.635Z,8.40
2023-02-19T07:56:10.604Z,8.60
2023-02-19T07:58:37.989Z,9.10
2023-02-19T08:01:16.599Z,8.50
2023-02-19T08:03:44.821Z,8.60
2023-02-19T08:06:12.717Z,9.40
2023-02-19T08:08:40.630Z,8.60
2023-02-19T08:11:26.501Z,8.50
2023-02-19T08:13:55.065Z,8.60
2023-02-19T08:16:36.751Z,8.60
2023-02-19T08:19:10.162Z,8.90
2023-02-19T08:21:37.537Z,8.80
2023-02-19T08:24:05.608Z,8.90
2023-02-19T08:26:34.071Z,8.50
2023-02-19T08:29:01.483Z,9.10
2023-02-19T08:31:28.916Z,8.80
2023-02-19T08:33:56.328Z,9.60
2023-02-19T08:36:23.829Z,8.90
2023-02-19T08:38:51.427Z,9.50
2023-02-19T08:43:46.555Z,8.80
2023-02-19T08:46:14.001Z,9.90
2023-02-19T08:48:41.541Z,9.00
2023-02-19T08:51:11.734Z,9.20
2023-02-19T08:53:40.488Z,8.90
2023-02-19T08:56:10.061Z,9.40
2023-02-19T08:58:38.586Z,8.90
2023-02-19T09:01:15.181Z,9.10
2023-02-19T09:03:43.079Z,9.30
2023-02-19T09:06:17.766Z,9.30
2023-02-19T09:08:45.166Z,9.10
2023-02-19T09:11:13.198Z,9.20
2023-02-19T09:13:40.741Z,9.10
2023-02-19T09:16:08.544Z,9.10
2023-02-19T09:18:37.407Z,9.20
2023-02-19T09:21:05.933Z,9.20
2023-02-19T09:23:34.571Z,9.40
2023-02-19T09:26:08.589Z,9.80
2023-02-19T09:28:36.444Z,9.30
2023-02-19T09:31:12.281Z,9.90
2023-02-19T09:33:44.484Z,9.30
2023-02-19T09:36:13.018Z,9.80
2023-02-19T09:38:40.854Z,9.40
2023-02-19T09:41:14.304Z,9.60
2023-02-19T09:43:43.095Z,10.50
2023-02-19T09:46:22.318Z,9.50
2023-02-19T09:48:49.683Z,9.80
2023-02-19T09:51:17.988Z,9.80
2023-02-19T09:53:49.279Z,9.70
2023-02-19T09:56:17.699Z,9.70
2023-02-19T09:58:49.772Z,9.80
2023-02-19T10:01:18.419Z,10.00
2023-02-19T10:03:48.573Z,10.60
2023-02-19T10:06:21.828Z,10.30
2023-02-19T10:08:52.429Z,10.30
2023-02-19T10:11:20.045Z,9.90
2023-02-19T10:13:50.321Z,10.10
2023-02-19T10:16:27.224Z,10.40
2023-02-19T10:18:54.686Z,10.50
2023-02-19T10:21:25.457Z,10.30
2023-02-19T10:24:02.774Z,10.20
2023-02-19T10:26:35.200Z,10.10
2023-02-19T10:29:06.990Z,10.30
2023-02-19T10:31:34.571Z,10.90
2023-02-19T10:34:02.528Z,10.50
2023-02-19T10:36:42.581Z,10.90
2023-02-19T10:39:22.366Z,10.70
2023-02-19T10:41:51.125Z,10.70
2023-02-19T10:44:24.636Z,10.80
2023-02-19T10:46:55.480Z,10.80
2023-02-19T10:49:28.598Z,10.90
2023-02-19T10:51:58.650Z,11.10
2023-02-19T10:54:30.243Z,11.30
2023-02-19T10:57:18.018Z,11.00
2023-02-19T10:59:54.160Z,11.10
2023-02-19T11:02:22.124Z,11.30
2023-02-19T11:05:08.994Z,11.60
2023-02-19T11:07:37.632Z,11.40
2023-02-19T11:10:30.227Z,11.70
2023-02-19T11:13:06.730Z,11.40
2023-02-19T11:15:39.115Z,11.60
2023-02-19T11:18:12.748Z,11.60
2023-02-19T11:20:57.836Z,11.80
2023-02-19T11:23:48.566Z,11.60
2023-02-19T11:26:48.049Z,11.60
2023-02-19T11:29:44.216Z,11.60
2023-02-19T11:32:29.834Z,12.00
2023-02-19T11:35:33.165Z,11.80
2023-02-19T11:38:08.649Z,11.80
2023-02-19T11:41:11.600Z,12.10
2023-02-19T11:43:48.624Z,12.20
2023-02-19T11:46:49.428Z,12.50
2023-02-19T11:49:37.645Z,12.70
2023-02-19T11:52:32.296Z,13.00
2023-02-19T11:55:25.654Z,13.00
2023-02-19T11:58:40.758Z,13.70
2023-02-19T12:01:32.261Z,13.90
2023-02-19T12:04:24.363Z,14.10
2023-02-19T12:07:23.114Z,14.10
2023-02-19T12:10:14.802Z,14.20
2023-02-19T12:13:09.318Z,14.40
2023-02-19T12:15:58.445Z,14.50
2023-02-19T12:18:53.791Z,14.80
2023-02-19T12:21:36.312Z,15.00
2023-02-19T12:24:22.504Z,14.90
2023-02-19T12:27:19.464Z,14.70
2023-02-19T12:30:42.614Z,14.70
2023-02-19T12:33:58.158Z,14.40
2023-02-19T12:36:48.958Z,14.30
2023-02-19T12:39:38.004Z,14.30
2023-02-19T12:42:32.023Z,14.40
2023-02-19T12:45:06.678Z,14.50
2023-02-19T12:47:41.371Z,14.60
2023-02-19T12:50:24.491Z,14.50
2023-02-19T12:53:10.835Z,14.20
2023-02-19T12:55:46.376Z,14.10
2023-02-19T12:58:38.540Z,13.90
2023-02-19T13:01:13.357Z,14.20
2023-02-19T13:03:50.258Z,14.20
2023-02-19T13:06:28.763Z,14.10
2023-02-19T13:09:28.357Z,14.00
2023-02-19T13:12:08.556Z,13.90
2023-02-19T13:15:01.922Z,13.80
2023-02-19T13:17:45.323Z,14.00
2023-02-19T13:20:32.595Z,13.80
2023-02-19T13:23:48.873Z,13.90
2023-02-19T13:26:22.540Z,14.10
2023-02-19T13:28:50.402Z,14.00
2023-02-19T13:31:53.133Z,13.80
2023-02-19T13:38:03.164Z,13.80
2023-02-19T13:40:41.370Z,13.90
2023-02-19T13:43:24.620Z,14.20
2023-02-19T13:46:20.544Z,14.70
2023-02-19T13:48:54.340Z,14.30
2023-02-19T13:51:21.883Z,14.30
2023-02-19T13:54:09.340Z,14.20
2023-02-19T13:56:45.266Z,14.20
2023-02-19T13:59:38.711Z,14.30
2023-02-19T14:02:12.795Z,14.30
2023-02-19T14:04:50.259Z,14.70
2023-02-19T14:07:17.704Z,15.10
2023-02-19T14:09:46.679Z,15.20
2023-02-19T14:12:15.839Z,15.40
2023-02-19T14:17:34.165Z,15.70
2023-02-19T14:20:40.776Z,16.00
2023-02-19T14:23:24.760Z,16.60
2023-02-19T14:26:00.472Z,17.00
2023-02-19T14:28:40.731Z,17.00
2023-02-19T14:31:10.985Z,17.30
2023-02-19T14:34:00.222Z,17.50
2023-02-19T14:36:47.870Z,17.60
2023-02-19T14:39:27.335Z,17.60
2023-02-19T14:41:59.259Z,17.60
2023-02-19T14:44:30.608Z,17.50
2023-02-19T14:47:14.493Z,17.50
2023-02-19T14:49:46.846Z,17.60
2023-02-19T14:52:41.047Z,17.60
2023-02-19T14:55:27.244Z,17.70
2023-02-19T14:57:56.770Z,17.70
2023-02-19T15:00:29.696Z,17.90
2023-02-19T15:02:59.773Z,18.00
2023-02-19T15:05:33.282Z,18.10
2023-02-19T15:08:04.503Z,18.00
2023-02-19T15:10:33.478Z,18.00
2023-02-19T15:13:07.509Z,18.00
2023-02-19T15:15:41.696Z,18.10
2023-02-19T15:18:18.274Z,18.20
2023-02-19T15:20:46.213Z,18.10
2023-02-19T15:23:23.434Z,18.10
2023-02-19T15:25:51.372Z,18.30
2023-02-19T15:28:24.993Z,18.40
2023-02-19T15:31:07.656Z,18.50
2023-02-19T15:33:35.544Z,18.30
2023-02-19T15:36:08.726Z,18.50
2023-02-19T15:38:36.870Z,18.60
2023-02-19T15:41:04.878Z,18.90
2023-02-19T15:43:45.898Z,19.10
2023-02-19T15:46:22.020Z,19.10
2023-02-19T15:49:03.113Z,18.90
2023-02-19T15:51:39.557Z,18.90
2023-02-19T15:54:35.186Z,19.00
2023-02-19T15:57:09.539Z,19.10
2023-02-19T15:59:44.431Z,19.40
2023-02-19T16:02:15.535Z,19.20
2023-02-19T16:04:44.829Z,19.30
2023-02-19T16:07:27.948Z,19.30
2023-02-19T16:10:20.756Z,18.90
2023-02-19T16:13:01.051Z,18.80
2023-02-19T16:15:30.592Z,18.70
2023-02-19T16:17:58.968Z,18.80
2023-02-19T16:20:29.522Z,19.10
2023-02-19T16:23:10.996Z,18.90
2023-02-19T16:25:42.212Z,18.70
2023-02-19T16:28:19.132Z,18.40
2023-02-19T16:31:06.941Z,18.40
2023-02-19T16:33:38.725Z,18.50
2023-02-19T16:36:41.804Z,18.50
2023-02-19T16:39:09.424Z,18.60
2023-02-19T16:41:40.037Z,17.80
2023-02-19T16:44:25.488Z,18.00
2023-02-19T16:46:55.938Z,17.80
2023-02-19T16:49:24.690Z,17.40
2023-02-19T16:51:53.823Z,17.10
2023-02-19T16:54:21.360Z,16.90
2023-02-19T16:56:48.740Z,16.30
2023-02-19T16:59:16.180Z,16.00
2023-02-19T17:01:46.507Z,15.60
2023-02-19T17:04:15.984Z,15.40
2023-02-19T17:09:12.990Z,14.80
2023-02-19T17:11:40.412Z,14.60
2023-02-19T17:14:08.331Z,14.40
2023-02-19T17:16:40.020Z,14.10
2023-02-19T17:19:54.977Z,13.90
2023-02-19T17:22:22.681Z,13.70
2023-02-19T17:24:56.071Z,13.60
2023-02-19T17:27:23.831Z,13.50
2023-02-19T17:29:51.517Z,13.40
2023-02-19T17:32:23.083Z,13.30
2023-02-19T17:34:50.936Z,13.20
2023-02-19T17:39:49.132Z,13.10
2023-02-19T17:42:16.868Z,13.20
2023-02-19T17:44:44.383Z,12.90
2023-02-19T17:47:11.909Z,12.80
2023-02-19T17:49:39.647Z,12.70
2023-02-19T17:52:06.987Z,12.70
2023-02-19T17:54:34.400Z,12.60
2023-02-19T17:57:02.189Z,12.50
2023-02-19T17:59:32.900Z,12.50
2023-02-19T18:02:00.340Z,12.50
2023-02-19T18:04:27.908Z,12.40
2023-02-19T18:06:55.893Z,12.30
2023-02-19T18:09:23.473Z,12.30
2023-02-19T18:11:51.077Z,12.10
2023-02-19T18:14:18.506Z,12.20
2023-02-19T18:16:50.517Z,12.10
2023-02-19T18:19:18.615Z,12.10
2023-02-19T18:21:45.996Z,12.00
2023-02-19T18:24:13.451Z,12.00
2023-02-19T18:26:41.202Z,11.90
2023-02-19T18:29:08.551Z,11.90
2023-02-19T18:31:37.987Z,11.90
2023-02-19T18:34:06.497Z,11.90
2023-02-19T18:36:34.067Z,11.70
2023-02-19T18:39:01.373Z,11.70
2023-02-19T18:41:28.728Z,11.90
2023-02-19T18:43:56.125Z,11.60
2023-02-19T18:46:23.610Z,11.40
2023-02-19T18:48:50.970Z,11.60
2023-02-19T18:53:46.132Z,11.50
2023-02-19T18:56:13.511Z,12.20
2023-02-19T18:58:41.011Z,11.40
2023-02-19T19:01:09.196Z,11.30
2023-02-19T19:03:36.642Z,11.20
2023-02-19T19:06:04.137Z,13.50
2023-02-19T19:08:31.648Z,11.10
2023-02-19T19:10:59.089Z,11.10
2023-02-19T19:13:26.350Z,11.00
2023-02-19T19:18:21.352Z,11.00
2023-02-19T19:20:48.648Z,10.70
2023-02-19T19:23:16.014Z,10.90
2023-02-19T19:25:43.468Z,10.90
2023-02-19T19:28:10.768Z,10.80
2023-02-19T19:30:38.963Z,10.80
2023-02-19T19:33:06.444Z,11.00
2023-02-19T19:35:33.867Z,10.70
2023-02-19T19:40:28.888Z,10.70
2023-02-19T19:45:25.199Z,10.70
2023-02-19T19:47:53.111Z,10.60
2023-02-19T19:50:20.754Z,10.60
2023-02-19T19:52:47.984Z,10.60
2023-02-19T19:55:16.337Z,10.70
2023-02-19T19:57:43.638Z,10.60
2023-02-19T20:00:14.652Z,10.70
2023-02-19T20:05:09.788Z,10.50
2023-02-19T20:07:37.215Z,10.40
2023-02-19T20:10:05.771Z,10.50
2023-02-19T20:12:33.227Z,10.40
2023-02-19T20:15:00.618Z,10.60
2023-02-19T20:17:28.919Z,10.90
2023-02-19T20:19:56.184Z,11.10
2023-02-19T20:24:52.312Z,10.20
2023-02-19T20:27:20.780Z,10.40
2023-02-19T20:29:48.219Z,10.30
2023-02-19T20:32:20.581Z,10.10
2023-02-19T20:34:48.424Z,10.20
2023-02-19T20:37:16.178Z,11.10
2023-02-19T20:39:43.639Z,10.10
2023-02-19T20:42:11.042Z,10.00
2023-02-19T20:44:38.618Z,9.60
2023-02-19T20:47:06.229Z,9.80
2023-02-19T20:49:34.447Z,9.90
2023-02-19T20:52:06.167Z,10.40
2023-02-19T20:54:35.200Z,9.90
2023-02-19T20:57:05.075Z,10.30
2023-02-19T20:59:35.397Z,10.10
2023-02-19T21:02:04.384Z,10.40
2023-02-19T21:04:31.928Z,9.70
2023-02-19T21:09:27.073Z,9.70
2023-02-19T21:11:54.449Z,9.60
2023-02-19T21:14:21.947Z,9.70
2023-02-19T21:16:49.271Z,9.60
2023-02-19T21:19:16.993Z,10.00
2023-02-19T21:21:44.575Z,9.40
2023-02-19T21:24:13.596Z,9.50
2023-02-19T21:26:42.824Z,10.30
2023-02-19T21:29:14.636Z,9.80
2023-02-19T21:31:48.594Z,10.00
2023-02-19T21:34:18.698Z,9.60
2023-02-19T21:36:46.199Z,9.30
2023-02-19T21:39:16.947Z,9.50
2023-02-19T21:41:44.632Z,9.30
2023-02-19T21:44:12.000Z,9.20
2023-02-19T21:46:39.725Z,9.70
2023-02-19T21:51:37.455Z,9.20
2023-02-19T21:54:06.067Z,9.00
2023-02-19T21:56:36.348Z,9.20
2023-02-19T21:59:04.463Z,9.10
2023-02-19T22:01:40.392Z,10.00
2023-02-19T22:04:09.119Z,8.70
2023-02-19T22:06:39.080Z,8.90
2023-02-19T22:09:07.687Z,8.90
2023-02-19T22:11:35.318Z,9.30
2023-02-19T22:14:03.022Z,9.10
2023-02-19T22:16:30.432Z,9.40
2023-02-19T22:18:59.268Z,9.30
2023-02-19T22:21:29.473Z,8.80
2023-02-19T22:23:58.293Z,8.60
2023-02-19T22:26:31.950Z,10.00
2023-02-19T22:28:59.899Z,8.60
2023-02-19T22:31:28.269Z,8.60
2023-02-19T22:33:57.131Z,9.00
2023-02-19T22:36:27.691Z,8.40
2023-02-19T22:38:55.233Z,8.60
2023-02-19T22:41:23.468Z,8.50
2023-02-19T22:43:53.931Z,8.50
2023-02-19T22:46:25.558Z,9.60
2023-02-19T22:48:52.899Z,8.80
2023-02-19T22:51:22.205Z,8.60
2023-02-19T22:53:52.211Z,8.70
2023-02-19T22:56:22.715Z,8.40
2023-02-19T22:58:50.466Z,8.50
2023-02-19T23:01:18.579Z,8.30
2023-02-19T23:03:45.833Z,8.30
2023-02-19T23:06:14.108Z,8.30
2023-02-19T23:08:42.882Z,8.20
2023-02-19T23:11:12.421Z,8.50
2023-02-19T23:13:42.698Z,8.60
2023-02-19T23:16:10.380Z,8.10
2023-02-19T23:18:37.921Z,8.10
2023-02-19T23:21:05.503Z,8.20
2023-02-19T23:26:00.616Z,8.00
2023-02-19T23:28:27.942Z,7.80
2023-02-19T23:30:55.511Z,7.90
2023-02-19T23:33:22.893Z,7.80
2023-02-19T23:35:50.224Z,8.10
2023-02-19T23:38:17.547Z,7.80
2023-02-19T23:40:45.541Z,8.00
2023-02-19T23:43:13.198Z,7.70
2023-02-19T23:45:40.754Z,7.90
2023-02-19T23:48:08.131Z,9.00
2023-02-19T23:50:35.424Z,7.60
2023-02-19T23:53:02.773Z,7.60
2023-02-19T23:55:30.161Z,7.70
2023-02-19T23:57:57.508Z,7.70
